Time;durP1;ratioP1;P1;durP2;ratioP2;P2;SDS_P1;SDS_P2;PMS_P1;PMS_P2;Temp;Humidity;BMP_temperature;BMP_pressure;BME280_temperature;BME280_humidity;BME280_pressure;Samples;Min_cycle;Max_cycle;Signal;HPM_P1;HPM_P2
2022/03/02 00:00:44;;;;;;;4.63;4.18;;;;;;;;;;5055440;28;20201;-80
2022/03/02 00:03:13;;;;;;;5.90;5.03;;;;;;;;;;5054822;28;20316;-81
2022/03/02 00:05:41;;;;;;;8.43;4.78;;;;;;;;;;5055444;28;20201;-82
2022/03/02 00:08:08;;;;;;;5.47;4.97;;;;;;;;;;5055714;28;20194;-81
2022/03/02 00:10:36;;;;;;;5.45;4.95;;;;;;;;;;5055923;28;20293;-81
2022/03/02 00:13:04;;;;;;;5.55;4.82;;;;;;;;;;5055250;28;20268;-81
2022/03/02 00:15:31;;;;;;;4.95;4.47;;;;;;;;;;5055354;28;20229;-82
2022/03/02 00:17:59;;;;;;;4.20;3.80;;;;;;;;;;5055423;28;20229;-82
2022/03/02 00:20:27;;;;;;;5.07;3.97;;;;;;;;;;5055557;28;20263;-82
2022/03/02 00:22:55;;;;;;;5.75;4.30;;;;;;;;;;5054899;28;20267;-82
2022/03/02 00:25:22;;;;;;;4.20;3.80;;;;;;;;;;5054808;28;20643;-82
2022/03/02 00:27:50;;;;;;;5.75;4.03;;;;;;;;;;5055319;28;20197;-82
2022/03/02 00:30:17;;;;;;;4.30;3.90;;;;;;;;;;5055660;28;20205;-83
2022/03/02 00:32:45;;;;;;;4.20;3.80;;;;;;;;;;5054736;28;20225;-84
2022/03/02 00:35:12;;;;;;;4.30;3.90;;;;;;;;;;5055116;28;20736;-84
2022/03/02 00:37:40;;;;;;;4.32;3.92;;;;;;;;;;5054963;28;20304;-84
2022/03/02 00:40:08;;;;;;;4.25;3.85;;;;;;;;;;5054470;28;20205;-84
2022/03/02 00:42:36;;;;;;;5.32;4.82;;;;;;;;;;5054338;28;20233;-84
2022/03/02 00:45:03;;;;;;;4.03;3.17;;;;;;;;;;5055140;28;20201;-84
2022/03/02 00:47:31;;;;;;;5.38;3.53;;;;;;;;;;5054526;28;20194;-84
2022/03/02 00:49:59;;;;;;;4.10;3.72;;;;;;;;;;5055148;28;20206;-83
2022/03/02 00:52:27;;;;;;;9.73;3.70;;;;;;;;;;5054646;28;20584;-83
2022/03/02 00:54:56;;;;;;;3.72;2.90;;;;;;;;;;5054394;28;20228;-82
2022/03/02 00:57:23;;;;;;;4.15;3.75;;;;;;;;;;5055364;28;20676;-83
2022/03/02 00:59:51;;;;;;;3.20;2.90;;;;;;;;;;5054706;28;20209;-83
2022/03/02 01:02:18;;;;;;;4.88;3.72;;;;;;;;;;5054470;28;20566;-84
2022/03/02 01:04:45;;;;;;;3.00;2.65;;;;;;;;;;5053975;28;20702;-83
2022/03/02 01:07:13;;;;;;;2.92;2.70;;;;;;;;;;5054592;28;20205;-84
2022/03/02 01:09:40;;;;;;;3.60;3.30;;;;;;;;;;5054104;28;20205;-84
2022/03/02 01:12:09;;;;;;;3.30;3.00;;;;;;;;;;5054193;28;20201;-83
2022/03/02 01:14:36;;;;;;;3.40;3.10;;;;;;;;;;5054064;28;20567;-84
2022/03/02 01:17:04;;;;;;;5.45;3.22;;;;;;;;;;5054468;28;20288;-83
2022/03/02 01:19:31;;;;;;;3.70;3.40;;;;;;;;;;5054372;28;20626;-83
2022/03/02 01:21:59;;;;;;;3.25;2.90;;;;;;;;;;5054108;28;20206;-84
2022/03/02 01:24:26;;;;;;;3.25;3.05;;;;;;;;;;5053977;28;20225;-83
2022/03/02 01:26:53;;;;;;;3.05;2.80;;;;;;;;;;5054544;28;20201;-84
2022/03/02 01:29:23;;;;;;;2.78;2.58;;;;;;;;;;5053809;28;20685;-84
2022/03/02 01:31:50;;;;;;;2.58;2.38;;;;;;;;;;5054657;28;20265;-83
2022/03/02 01:34:18;;;;;;;2.40;2.20;;;;;;;;;;5053971;28;20229;-83
2022/03/02 01:36:45;;;;;;;2.33;2.17;;;;;;;;;;5054362;28;20204;-84
2022/03/02 01:39:12;;;;;;;2.25;2.05;;;;;;;;;;5053904;28;20222;-84
2022/03/02 01:41:40;;;;;;;2.53;2.33;;;;;;;;;;5054024;28;20209;-83
2022/03/02 01:44:08;;;;;;;2.10;2.00;;;;;;;;;;5054152;28;20226;-83
2022/03/02 01:46:37;;;;;;;2.30;2.10;;;;;;;;;;5054424;28;20297;-83
2022/03/02 01:49:04;;;;;;;2.92;2.67;;;;;;;;;;5054113;28;20204;-84
2022/03/02 01:51:31;;;;;;;3.05;2.75;;;;;;;;;;5055651;28;20335;-82
2022/03/02 01:53:59;;;;;;;2.47;2.28;;;;;;;;;;5057812;28;20232;-84
2022/03/02 01:56:26;;;;;;;3.28;2.42;;;;;;;;;;5058109;28;20201;-83
2022/03/02 01:58:54;;;;;;;4.82;2.92;;;;;;;;;;5057605;28;20225;-84
2022/03/02 02:01:21;;;;;;;3.75;3.35;;;;;;;;;;5057890;28;20214;-83
2022/03/02 02:03:50;;;;;;;3.00;2.58;;;;;;;;;;5057828;28;20299;-84
2022/03/02 02:06:17;;;;;;;3.85;3.17;;;;;;;;;;5058091;28;20209;-84
2022/03/02 02:08:45;;;;;;;5.22;4.68;;;;;;;;;;5057527;28;20681;-84
2022/03/02 02:11:14;;;;;;;4.80;4.40;;;;;;;;;;5057749;28;20626;-84
2022/03/02 02:13:41;;;;;;;6.40;5.70;;;;;;;;;;5057379;28;20225;-83
2022/03/02 02:16:10;;;;;;;5.88;5.22;;;;;;;;;;5057546;28;20696;-81
2022/03/02 02:18:37;;;;;;;4.88;4.45;;;;;;;;;;5057489;28;20229;-82
2022/03/02 02:21:08;;;;;;;3.97;3.42;;;;;;;;;;5057828;28;20206;-82
2022/03/02 02:23:36;;;;;;;5.15;4.63;;;;;;;;;;5057045;28;20225;-84
2022/03/02 02:26:04;;;;;;;3.97;3.10;;;;;;;;;;5057801;28;20206;-84
2022/03/02 02:28:33;;;;;;;4.53;3.78;;;;;;;;;;5057308;28;20205;-83
2022/03/02 02:31:01;;;;;;;3.17;2.65;;;;;;;;;;5057241;28;20198;-83
2022/03/02 02:33:29;;;;;;;2.63;2.42;;;;;;;;;;5057321;28;20236;-84
2022/03/02 02:35:57;;;;;;;3.97;3.63;;;;;;;;;;5065762;28;20202;-82
2022/03/02 02:38:26;;;;;;;5.57;4.32;;;;;;;;;;5069019;28;20205;-84
2022/03/02 02:40:54;;;;;;;4.25;3.85;;;;;;;;;;5066393;28;20670;-83
2022/03/02 02:43:25;;;;;;;4.25;3.85;;;;;;;;;;5066322;28;20232;-83
2022/03/02 02:45:52;;;;;;;4.35;3.95;;;;;;;;;;5066375;28;20201;-84
2022/03/02 02:48:20;;;;;;;4.50;4.03;;;;;;;;;;5060455;28;20228;-84
2022/03/02 02:50:47;;;;;;;4.43;4.00;;;;;;;;;;5059134;28;20615;-81
2022/03/02 02:53:16;;;;;;;5.63;5.07;;;;;;;;;;5059219;28;20213;-82
2022/03/02 02:55:50;;;;;;;4.85;4.35;;;;;;;;;;5058927;28;20894;-82
2022/03/02 02:58:17;;;;;;;3.78;3.47;;;;;;;;;;5059068;28;20231;-81
2022/03/02 03:00:49;;;;;;;3.50;3.20;;;;;;;;;;5058442;28;20217;-82
2022/03/02 03:03:17;;;;;;;4.03;3.33;;;;;;;;;;5063677;28;20312;-84
2022/03/02 03:05:45;;;;;;;3.70;3.28;;;;;;;;;;5067948;28;20210;-81
2022/03/02 03:08:14;;;;;;;2.78;2.35;;;;;;;;;;5068752;28;20240;-81
2022/03/02 03:10:45;;;;;;;3.17;2.72;;;;;;;;;;5068146;28;20194;-82
2022/03/02 03:13:13;;;;;;;3.38;3.05;;;;;;;;;;5063364;28;20232;-82
2022/03/02 03:15:41;;;;;;;4.45;2.33;;;;;;;;;;5058571;28;20205;-81
2022/03/02 03:18:08;;;;;;;3.55;3.15;;;;;;;;;;5058104;28;20206;-81
2022/03/02 03:20:36;;;;;;;4.70;2.45;;;;;;;;;;5057956;28;20279;-82
2022/03/02 03:23:06;;;;;;;3.67;3.38;;;;;;;;;;5062863;28;20225;-82
2022/03/02 03:25:34;;;;;;;3.58;3.13;;;;;;;;;;5060266;28;20239;-83
2022/03/02 03:28:03;;;;;;;4.97;3.35;;;;;;;;;;5058198;28;20214;-83
2022/03/02 03:30:31;;;;;;;3.05;2.83;;;;;;;;;;5058018;28;20285;-82
2022/03/02 03:32:59;;;;;;;3.28;2.85;;;;;;;;;;5057574;28;20279;-82
2022/03/02 03:35:28;;;;;;;2.35;2.15;;;;;;;;;;5057510;28;20205;-83
2022/03/02 03:37:56;;;;;;;3.05;2.10;;;;;;;;;;5057332;28;20209;-82
2022/03/02 03:40:24;;;;;;;2.05;1.95;;;;;;;;;;5057052;28;21065;-84
2022/03/02 03:42:53;;;;;;;2.90;2.60;;;;;;;;;;5057284;28;20640;-83
2022/03/02 03:45:22;;;;;;;2.95;2.60;;;;;;;;;;5057467;28;20208;-82
2022/03/02 03:47:50;;;;;;;3.53;3.05;;;;;;;;;;5057529;28;20209;-82
2022/03/02 03:50:19;;;;;;;2.03;1.90;;;;;;;;;;5056774;28;20194;-82
2022/03/02 03:52:47;;;;;;;2.25;2.15;;;;;;;;;;5056797;28;20256;-81
2022/03/02 03:55:15;;;;;;;3.08;2.80;;;;;;;;;;5058126;28;20205;-81
2022/03/02 03:57:42;;;;;;;4.95;3.65;;;;;;;;;;5057054;28;20205;-82
2022/03/02 04:00:14;;;;;;;3.58;3.28;;;;;;;;;;5057981;28;20228;-82
2022/03/02 04:02:43;;;;;;;2.80;2.60;;;;;;;;;;5058031;28;20713;-82
2022/03/02 04:05:10;;;;;;;2.70;2.50;;;;;;;;;;5057803;28;20220;-82
2022/03/02 04:07:38;;;;;;;3.08;2.83;;;;;;;;;;5056916;28;20214;-83
2022/03/02 04:10:08;;;;;;;3.03;2.72;;;;;;;;;;5057122;28;20221;-82
2022/03/02 04:12:36;;;;;;;2.60;2.40;;;;;;;;;;5056278;28;20232;-82
2022/03/02 04:15:05;;;;;;;2.80;2.60;;;;;;;;;;5056079;28;20209;-81
2022/03/02 04:17:33;;;;;;;3.58;3.28;;;;;;;;;;5056026;28;20697;-82
2022/03/02 04:20:02;;;;;;;4.13;3.83;;;;;;;;;;5056187;28;20586;-82
2022/03/02 04:22:29;;;;;;;4.38;3.92;;;;;;;;;;5056637;28;20218;-83
2022/03/02 04:24:56;;;;;;;4.38;3.35;;;;;;;;;;5056445;28;20580;-83
2022/03/02 04:27:24;;;;;;;3.97;3.65;;;;;;;;;;5056486;28;20576;-83
2022/03/02 04:29:51;;;;;;;3.63;3.33;;;;;;;;;;5055870;28;20202;-83
2022/03/02 04:32:18;;;;;;;3.63;3.33;;;;;;;;;;5055553;28;20255;-82
2022/03/02 04:34:46;;;;;;;3.92;3.40;;;;;;;;;;5055533;28;20670;-82
2022/03/02 04:37:14;;;;;;;3.75;3.25;;;;;;;;;;5055766;28;20670;-82
2022/03/02 04:39:41;;;;;;;3.17;2.83;;;;;;;;;;5056000;28;20209;-81
2022/03/02 04:42:09;;;;;;;3.30;3.05;;;;;;;;;;5055035;28;20276;-82
2022/03/02 04:44:36;;;;;;;3.30;2.50;;;;;;;;;;5055253;28;20209;-82
2022/03/02 04:47:04;;;;;;;2.67;2.47;;;;;;;;;;5056320;28;20225;-82
2022/03/02 04:49:32;;;;;;;3.47;2.95;;;;;;;;;;5056113;28;20213;-82
2022/03/02 04:51:59;;;;;;;2.80;2.60;;;;;;;;;;5055017;28;20732;-82
2022/03/02 04:57:13;;;;;;;3.00;2.30;;;;;;;;;;5055083;28;20204;-82
2022/03/02 04:59:41;;;;;;;3.08;2.78;;;;;;;;;;5054849;28;20607;-82
2022/03/02 05:02:08;;;;;;;2.90;2.50;;;;;;;;;;5054411;28;20197;-80
2022/03/02 05:04:35;;;;;;;2.13;2.03;;;;;;;;;;5054912;28;20681;-82
2022/03/02 05:07:03;;;;;;;2.72;2.40;;;;;;;;;;5054350;28;20197;-82
2022/03/02 05:09:32;;;;;;;2.38;2.10;;;;;;;;;;5055188;28;20205;-81
2022/03/02 05:11:59;;;;;;;2.58;2.38;;;;;;;;;;5054598;28;20206;-82
2022/03/02 05:14:26;;;;;;;2.35;2.13;;;;;;;;;;5054847;28;20229;-80
2022/03/02 05:16:53;;;;;;;1.90;1.80;;;;;;;;;;5054858;28;20209;-82
2022/03/02 05:19:21;;;;;;;3.85;2.08;;;;;;;;;;5054683;28;20228;-81
2022/03/02 05:21:48;;;;;;;1.75;1.58;;;;;;;;;;5053928;28;20229;-81
2022/03/02 05:24:16;;;;;;;2.40;2.15;;;;;;;;;;5054918;28;20268;-82
2022/03/02 05:26:44;;;;;;;2.15;1.85;;;;;;;;;;5057775;28;20198;-81
2022/03/02 05:29:12;;;;;;;2.60;2.40;;;;;;;;;;5058594;28;20205;-82
2022/03/02 05:31:39;;;;;;;2.58;2.08;;;;;;;;;;5057849;28;20201;-82
2022/03/02 05:34:06;;;;;;;2.40;2.20;;;;;;;;;;5058529;28;20283;-82
2022/03/02 05:36:34;;;;;;;2.00;1.90;;;;;;;;;;5058421;28;20280;-82
2022/03/02 05:39:01;;;;;;;2.58;2.38;;;;;;;;;;5058931;28;20213;-81
2022/03/02 05:41:28;;;;;;;2.40;2.20;;;;;;;;;;5058890;28;20217;-82
2022/03/02 05:43:57;;;;;;;3.53;2.40;;;;;;;;;;5057822;28;20229;-82
2022/03/02 05:46:24;;;;;;;2.63;2.42;;;;;;;;;;5061273;28;20558;-83
2022/03/02 05:48:52;;;;;;;3.67;3.17;;;;;;;;;;5058324;28;20208;-81
2022/03/02 05:51:19;;;;;;;5.28;3.58;;;;;;;;;;5057238;28;20201;-81
2022/03/02 05:53:47;;;;;;;3.42;3.13;;;;;;;;;;5056473;28;20245;-80
2022/03/02 05:56:14;;;;;;;3.35;3.05;;;;;;;;;;5057216;28;20707;-81
2022/03/02 05:58:41;;;;;;;3.47;3.00;;;;;;;;;;5056810;28;20661;-81
2022/03/02 06:01:10;;;;;;;3.88;3.58;;;;;;;;;;5056920;28;20224;-80
2022/03/02 06:03:37;;;;;;;4.22;2.75;;;;;;;;;;5056814;28;20225;-81
2022/03/02 06:06:05;;;;;;;3.42;3.13;;;;;;;;;;5056780;28;20209;-81
2022/03/02 06:08:32;;;;;;;3.47;3.17;;;;;;;;;;5056709;28;20229;-82
2022/03/02 06:11:00;;;;;;;3.60;3.30;;;;;;;;;;5056881;28;20693;-81
2022/03/02 06:13:29;;;;;;;4.47;3.63;;;;;;;;;;5056265;28;20218;-81
2022/03/02 06:15:58;;;;;;;3.95;3.33;;;;;;;;;;5056844;28;20205;-82
2022/03/02 06:18:27;;;;;;;4.25;3.47;;;;;;;;;;5056926;28;20630;-81
2022/03/02 06:21:00;;;;;;;3.60;3.20;;;;;;;;;;5056900;28;20221;-82
2022/03/02 06:23:28;;;;;;;3.45;2.88;;;;;;;;;;5056390;28;20221;-82
2022/03/02 06:25:56;;;;;;;4.18;3.67;;;;;;;;;;5056787;28;20201;-82
2022/03/02 06:28:23;;;;;;;3.63;3.33;;;;;;;;;;5055675;28;20665;-82
2022/03/02 06:30:51;;;;;;;4.53;3.92;;;;;;;;;;5055490;28;20202;-82
2022/03/02 06:33:20;;;;;;;5.95;5.38;;;;;;;;;;5057116;28;20599;-82
2022/03/02 06:35:50;;;;;;;6.68;4.63;;;;;;;;;;5057600;28;20252;-82
2022/03/02 06:38:18;;;;;;;5.25;4.70;;;;;;;;;;5055773;28;20300;-82
2022/03/02 06:41:03;;;;;;;7.70;4.07;;;;;;;;;;5057168;28;20202;-82
2022/03/02 06:43:35;;;;;;;4.43;4.03;;;;;;;;;;5050553;28;20260;-84
2022/03/02 06:46:08;;;;;;;3.75;3.38;;;;;;;;;;5057012;28;20193;-83
2022/03/02 06:48:45;;;;;;;3.17;2.88;;;;;;;;;;5056370;28;20296;-82
2022/03/02 06:51:16;;;;;;;3.38;3.08;;;;;;;;;;5056346;28;20646;-83
2022/03/02 06:53:46;;;;;;;3.30;3.03;;;;;;;;;;5056769;28;20225;-82
2022/03/02 06:56:13;;;;;;;5.30;4.28;;;;;;;;;;5057074;28;20604;-83
2022/03/02 06:58:49;;;;;;;4.20;3.80;;;;;;;;;;5056307;28;20220;-83
2022/03/02 07:01:27;;;;;;;7.88;4.53;;;;;;;;;;5056397;28;20225;-82
2022/03/02 07:03:57;;;;;;;5.47;4.97;;;;;;;;;;5056206;28;20642;-82
2022/03/02 07:06:27;;;;;;;5.38;4.43;;;;;;;;;;5056843;28;20210;-82
2022/03/02 07:08:54;;;;;;;5.50;4.30;;;;;;;;;;5049951;28;20202;-82
2022/03/02 07:11:25;;;;;;;4.28;3.92;;;;;;;;;;5050285;28;20210;-83
2022/03/02 07:13:52;;;;;;;3.67;3.35;;;;;;;;;;5049654;28;20252;-82
2022/03/02 07:16:21;;;;;;;4.25;3.33;;;;;;;;;;5056201;28;20661;-83
2022/03/02 07:18:50;;;;;;;3.70;3.25;;;;;;;;;;5056620;28;20677;-83
2022/03/02 07:21:18;;;;;;;4.68;4.28;;;;;;;;;;5056282;28;20257;-82
2022/03/02 07:23:52;;;;;;;3.10;2.85;;;;;;;;;;5055882;28;20762;-82
2022/03/02 07:26:19;;;;;;;4.82;3.00;;;;;;;;;;5056261;28;20278;-81
2022/03/02 07:28:49;;;;;;;3.22;2.85;;;;;;;;;;5055822;28;20214;-81
2022/03/02 07:31:18;;;;;;;4.32;4.03;;;;;;;;;;5056137;28;20688;-82
2022/03/02 07:33:47;;;;;;;3.53;3.22;;;;;;;;;;5055780;28;20316;-82
2022/03/02 07:36:14;;;;;;;2.90;2.70;;;;;;;;;;5055750;28;20206;-82
2022/03/02 07:38:41;;;;;;;3.50;3.20;;;;;;;;;;5055828;28;20216;-82
2022/03/02 07:41:11;;;;;;;2.80;2.60;;;;;;;;;;5055561;28;20202;-82
2022/03/02 07:43:40;;;;;;;4.35;2.95;;;;;;;;;;5056097;28;20589;-82
2022/03/02 07:46:09;;;;;;;4.53;3.13;;;;;;;;;;5056515;28;20217;-82
2022/03/02 07:48:37;;;;;;;3.78;2.80;;;;;;;;;;5055102;28;20647;-82
2022/03/02 07:51:07;;;;;;;3.63;3.33;;;;;;;;;;5055734;28;20206;-82
2022/03/02 07:53:41;;;;;;;4.00;3.63;;;;;;;;;;5056618;28;20236;-82
2022/03/02 07:56:11;;;;;;;5.18;4.45;;;;;;;;;;5056456;28;20201;-82
2022/03/02 07:58:40;;;;;;;4.28;3.90;;;;;;;;;;5055765;28;20206;-82
2022/03/02 08:01:09;;;;;;;3.30;3.00;;;;;;;;;;5056299;28;20288;-82
2022/03/02 08:03:39;;;;;;;3.70;3.42;;;;;;;;;;5054827;28;20237;-82
2022/03/02 08:06:08;;;;;;;6.03;5.40;;;;;;;;;;5055838;28;20215;-82
2022/03/02 08:08:36;;;;;;;7.10;4.40;;;;;;;;;;5056846;28;20202;-83
2022/03/02 08:11:04;;;;;;;6.70;4.75;;;;;;;;;;5056668;28;20276;-83
2022/03/02 08:13:36;;;;;;;4.70;4.30;;;;;;;;;;5056833;28;20221;-82
2022/03/02 08:16:04;;;;;;;4.28;3.88;;;;;;;;;;5058101;28;20202;-83
2022/03/02 08:18:31;;;;;;;4.05;3.65;;;;;;;;;;5057604;28;20209;-82
2022/03/02 08:20:59;;;;;;;4.47;3.92;;;;;;;;;;5058241;28;20658;-84
2022/03/02 08:23:32;;;;;;;4.78;3.83;;;;;;;;;;5056474;28;20230;-84
2022/03/02 08:26:00;;;;;;;3.40;3.10;;;;;;;;;;5055948;28;20201;-84
2022/03/02 08:28:27;;;;;;;4.55;4.15;;;;;;;;;;5055832;28;20212;-83
2022/03/02 08:30:56;;;;;;;4.78;4.28;;;;;;;;;;5056543;28;20193;-85
2022/03/02 08:33:29;;;;;;;4.32;3.92;;;;;;;;;;5056478;28;20229;-84
2022/03/02 08:35:57;;;;;;;6.05;5.05;;;;;;;;;;5050229;28;20255;-84
2022/03/02 08:38:26;;;;;;;5.25;4.40;;;;;;;;;;5051338;28;20720;-84
2022/03/02 08:40:53;;;;;;;6.68;5.72;;;;;;;;;;5055576;28;20201;-82
2022/03/02 08:43:21;;;;;;;6.18;5.57;;;;;;;;;;5054937;28;20233;-83
2022/03/02 08:45:50;;;;;;;6.07;5.47;;;;;;;;;;5055866;28;20206;-81
2022/03/02 08:48:20;;;;;;;6.43;5.80;;;;;;;;;;5055811;28;20206;-83
2022/03/02 08:50:49;;;;;;;6.82;5.93;;;;;;;;;;5055063;28;20205;-83
2022/03/02 08:53:18;;;;;;;6.13;5.53;;;;;;;;;;5055008;28;20222;-83
2022/03/02 08:55:46;;;;;;;6.07;5.03;;;;;;;;;;5055244;28;20255;-83
2022/03/02 08:58:13;;;;;;;5.50;4.95;;;;;;;;;;5055220;28;20201;-83
2022/03/02 09:00:40;;;;;;;9.32;6.55;;;;;;;;;;5055323;28;20275;-83
2022/03/02 09:03:08;;;;;;;6.03;5.53;;;;;;;;;;5055607;28;20233;-83
2022/03/02 09:05:36;;;;;;;6.78;6.07;;;;;;;;;;5056399;28;20206;-83
2022/03/02 09:08:04;;;;;;;6.82;6.13;;;;;;;;;;5055425;28;20209;-84
2022/03/02 09:10:33;;;;;;;6.93;6.18;;;;;;;;;;5056099;28;20224;-83
2022/03/02 09:13:01;;;;;;;7.60;6.90;;;;;;;;;;5055821;28;20261;-84
2022/03/02 09:15:29;;;;;;;7.25;6.50;;;;;;;;;;5056034;28;20242;-83
2022/03/02 09:17:56;;;;;;;6.88;6.28;;;;;;;;;;5056275;28;20267;-84
2022/03/02 09:20:24;;;;;;;7.30;6.28;;;;;;;;;;5055326;28;20720;-82
2022/03/02 09:22:54;;;;;;;7.88;7.13;;;;;;;;;;5056631;28;20225;-84
2022/03/02 09:25:22;;;;;;;7.78;6.53;;;;;;;;;;5056572;28;20218;-84
2022/03/02 09:27:52;;;;;;;7.10;6.40;;;;;;;;;;5056551;28;20209;-85
2022/03/02 09:30:19;;;;;;;7.47;5.85;;;;;;;;;;5055202;28;20232;-85
2022/03/02 09:32:47;;;;;;;7.43;6.68;;;;;;;;;;5055347;28;20222;-85
2022/03/02 09:35:15;;;;;;;6.90;6.28;;;;;;;;;;5055814;28;20198;-85
2022/03/02 09:37:49;;;;;;;6.90;6.20;;;;;;;;;;5056520;28;20201;-84
2022/03/02 09:40:26;;;;;;;5.97;5.25;;;;;;;;;;5056253;28;20267;-85
2022/03/02 09:42:59;;;;;;;4.65;4.25;;;;;;;;;;5056268;28;20697;-85
2022/03/02 09:45:29;;;;;;;5.20;4.50;;;;;;;;;;5055854;28;20240;-84
2022/03/02 09:47:58;;;;;;;5.35;4.75;;;;;;;;;;5056323;28;20639;-84
2022/03/02 09:50:31;;;;;;;5.72;4.85;;;;;;;;;;5055897;28;20269;-85
2022/03/02 09:53:05;;;;;;;4.35;3.95;;;;;;;;;;5055456;28;20229;-84
2022/03/02 09:55:37;;;;;;;7.35;5.65;;;;;;;;;;5048297;28;20215;-85
2022/03/02 09:58:05;;;;;;;5.97;5.25;;;;;;;;;;5054578;28;20209;-85
2022/03/02 10:00:33;;;;;;;6.05;5.45;;;;;;;;;;5059616;28;20329;-84
2022/03/02 10:03:02;;;;;;;6.15;5.53;;;;;;;;;;5067505;28;20226;-85
2022/03/02 10:05:33;;;;;;;5.47;4.97;;;;;;;;;;5068034;28;20201;-83
2022/03/02 10:08:04;;;;;;;4.90;4.45;;;;;;;;;;5067295;28;20202;-84
2022/03/02 10:10:36;;;;;;;6.65;4.63;;;;;;;;;;5056630;28;20209;-84
2022/03/02 10:13:08;;;;;;;5.00;4.50;;;;;;;;;;5058340;28;20260;-83
2022/03/02 10:15:36;;;;;;;5.72;4.78;;;;;;;;;;5060525;28;20215;-84
2022/03/02 10:18:06;;;;;;;4.40;3.47;;;;;;;;;;5059155;28;20205;-84
2022/03/02 10:20:37;;;;;;;5.82;4.53;;;;;;;;;;5058735;28;20201;-83
2022/03/02 10:23:33;;;;;;;5.25;4.75;;;;;;;;;;5057376;28;20238;-84
2022/03/02 10:26:15;;;;;;;4.30;3.72;;;;;;;;;;5057543;28;20212;-84
2022/03/02 10:28:53;;;;;;;6.35;4.43;;;;;;;;;;5057170;28;20220;-84
2022/03/02 10:31:34;;;;;;;5.68;5.18;;;;;;;;;;5057382;28;20205;-85
2022/03/02 10:34:07;;;;;;;4.90;4.07;;;;;;;;;;5060692;28;20713;-84
2022/03/02 10:36:42;;;;;;;3.67;3.40;;;;;;;;;;5059190;28;20846;-84
2022/03/02 10:39:11;;;;;;;4.88;4.47;;;;;;;;;;5068442;28;20216;-85
2022/03/02 10:41:40;;;;;;;5.30;4.57;;;;;;;;;;5066614;28;20206;-84
2022/03/02 10:44:16;;;;;;;5.03;4.43;;;;;;;;;;5067957;28;20218;-84
2022/03/02 10:46:52;;;;;;;4.75;4.25;;;;;;;;;;5057656;28;20570;-84
2022/03/02 10:49:21;;;;;;;3.72;3.40;;;;;;;;;;5056940;28;20232;-84
2022/03/02 10:51:50;;;;;;;3.50;3.20;;;;;;;;;;5057414;28;20220;-83
2022/03/02 10:54:20;;;;;;;4.75;3.80;;;;;;;;;;5056928;28;20225;-84
2022/03/02 10:56:52;;;;;;;3.13;2.83;;;;;;;;;;5057476;28;20259;-85
2022/03/02 10:59:23;;;;;;;5.70;4.18;;;;;;;;;;5056649;28;20260;-84
2022/03/02 11:01:51;;;;;;;3.90;3.35;;;;;;;;;;5060693;28;20221;-84
2022/03/02 11:04:21;;;;;;;3.67;2.72;;;;;;;;;;5070551;28;20271;-85
2022/03/02 11:06:48;;;;;;;2.60;2.40;;;;;;;;;;5070194;28;20205;-84
2022/03/02 11:09:17;;;;;;;2.65;2.45;;;;;;;;;;5069873;28;20197;-84
2022/03/02 11:11:45;;;;;;;3.85;2.88;;;;;;;;;;5060302;28;20209;-84
2022/03/02 11:14:15;;;;;;;3.20;3.00;;;;;;;;;;5059160;28;20221;-83
2022/03/02 11:16:43;;;;;;;2.95;2.65;;;;;;;;;;5058573;28;20202;-84
2022/03/02 11:19:13;;;;;;;3.85;2.92;;;;;;;;;;5057486;28;20206;-83
2022/03/02 11:21:43;;;;;;;3.42;3.13;;;;;;;;;;5057689;28;20205;-83
2022/03/02 11:24:15;;;;;;;3.92;3.63;;;;;;;;;;5050848;28;20753;-85
2022/03/02 11:26:44;;;;;;;3.40;3.10;;;;;;;;;;5056151;28;20205;-85
2022/03/02 11:29:15;;;;;;;3.88;3.08;;;;;;;;;;5056006;28;20224;-85
2022/03/02 11:31:45;;;;;;;2.92;2.72;;;;;;;;;;5055531;28;20704;-84
2022/03/02 11:34:15;;;;;;;2.80;2.20;;;;;;;;;;5055049;28;20701;-85
2022/03/02 11:36:45;;;;;;;3.30;3.00;;;;;;;;;;5055926;28;20237;-84
2022/03/02 11:39:17;;;;;;;2.33;2.10;;;;;;;;;;5055143;28;20205;-85
2022/03/02 11:41:47;;;;;;;3.60;2.60;;;;;;;;;;5055109;28;20196;-85
2022/03/02 11:44:30;;;;;;;2.88;2.58;;;;;;;;;;5054403;28;20723;-84
2022/03/02 11:46:58;;;;;;;4.35;3.95;;;;;;;;;;5055111;28;20274;-85
2022/03/02 11:49:42;;;;;;;4.00;3.60;;;;;;;;;;5054553;28;20205;-85
2022/03/02 11:52:14;;;;;;;3.55;3.25;;;;;;;;;;5054390;28;20214;-85
2022/03/02 11:54:44;;;;;;;3.97;3.60;;;;;;;;;;5054234;28;20216;-84
2022/03/02 11:57:12;;;;;;;4.70;4.30;;;;;;;;;;5054466;28;20205;-85
2022/03/02 11:59:41;;;;;;;2.90;2.70;;;;;;;;;;5056390;28;20216;-85
2022/03/02 12:02:15;;;;;;;2.95;2.65;;;;;;;;;;5054850;28;20205;-85
2022/03/02 12:04:58;;;;;;;4.07;3.22;;;;;;;;;;5057250;28;20232;-85
2022/03/02 12:07:26;;;;;;;4.18;3.13;;;;;;;;;;5053677;28;20201;-85
2022/03/02 12:09:54;;;;;;;3.08;2.78;;;;;;;;;;5053860;28;20650;-85
2022/03/02 12:12:22;;;;;;;4.72;3.50;;;;;;;;;;5053984;28;20750;-86
2022/03/02 12:14:56;;;;;;;3.42;3.13;;;;;;;;;;5054663;28;20308;-85
2022/03/02 12:17:26;;;;;;;2.92;2.60;;;;;;;;;;5053667;28;20213;-86
2022/03/02 12:19:56;;;;;;;2.60;2.40;;;;;;;;;;5053506;28;20213;-86
2022/03/02 12:22:26;;;;;;;2.72;2.53;;;;;;;;;;5053339;28;20248;-86
2022/03/02 12:24:54;;;;;;;2.15;1.83;;;;;;;;;;5054797;28;20233;-86
2022/03/02 12:27:22;;;;;;;3.30;3.00;;;;;;;;;;5054191;28;20201;-87
2022/03/02 12:30:00;;;;;;;3.65;3.35;;;;;;;;;;5053166;28;20217;-86
2022/03/02 12:32:31;;;;;;;3.40;3.10;;;;;;;;;;5053255;28;20225;-85
2022/03/02 12:35:01;;;;;;;3.47;3.17;;;;;;;;;;5053113;28;20205;-86
2022/03/02 12:37:30;;;;;;;2.85;2.58;;;;;;;;;;5053631;28;20205;-86
2022/03/02 12:39:57;;;;;;;3.90;3.00;;;;;;;;;;5054073;28;20216;-86
2022/03/02 12:42:25;;;;;;;3.85;3.53;;;;;;;;;;5053932;28;20677;-85
2022/03/02 12:44:55;;;;;;;3.35;3.10;;;;;;;;;;5053469;28;20225;-84
2022/03/02 12:47:27;;;;;;;1.65;1.55;;;;;;;;;;5052884;28;20229;-85
2022/03/02 12:49:56;;;;;;;2.17;1.98;;;;;;;;;;5053082;28;20209;-86
2022/03/02 12:52:27;;;;;;;2.42;2.15;;;;;;;;;;5053332;28;20202;-85
2022/03/02 12:54:55;;;;;;;2.65;2.45;;;;;;;;;;5053448;28;20225;-84
2022/03/02 12:57:25;;;;;;;1.95;1.85;;;;;;;;;;5053193;28;20232;-85
2022/03/02 12:59:53;;;;;;;3.40;3.10;;;;;;;;;;5053145;28;20211;-85
2022/03/02 13:02:25;;;;;;;3.20;2.97;;;;;;;;;;5052751;28;20220;-86
2022/03/02 13:05:03;;;;;;;3.95;3.45;;;;;;;;;;5054326;28;20573;-85
2022/03/02 13:07:52;;;;;;;3.45;3.17;;;;;;;;;;5053568;28;20205;-85
2022/03/02 13:10:23;;;;;;;3.30;3.00;;;;;;;;;;5053183;28;20255;-85
2022/03/02 13:12:54;;;;;;;2.90;2.70;;;;;;;;;;5052816;28;20828;-84
2022/03/02 13:15:36;;;;;;;4.13;3.83;;;;;;;;;;5052818;28;20202;-85
2022/03/02 13:18:18;;;;;;;3.00;2.67;;;;;;;;;;5054708;28;20204;-86
2022/03/02 13:21:12;;;;;;;3.65;3.35;;;;;;;;;;5048164;28;20607;-86
2022/03/02 13:23:40;;;;;;;3.38;3.03;;;;;;;;;;5054181;28;20225;-85
2022/03/02 13:26:15;;;;;;;3.40;3.10;;;;;;;;;;5054480;28;20690;-86
2022/03/02 13:29:16;;;;;;;3.78;3.47;;;;;;;;;;5054143;28;20198;-84
2022/03/02 13:31:58;;;;;;;3.17;2.22;;;;;;;;;;4992109;28;20210;-83
2022/03/02 13:34:29;;;;;;;2.72;2.53;;;;;;;;;;4992720;28;20317;-84
2022/03/02 13:36:59;;;;;;;2.92;2.72;;;;;;;;;;5028784;28;20206;-85
2022/03/02 13:39:30;;;;;;;2.85;2.55;;;;;;;;;;5055024;28;20209;-84
2022/03/02 13:42:00;;;;;;;2.97;2.75;;;;;;;;;;5054232;28;20205;-85
2022/03/02 13:44:35;;;;;;;2.25;2.05;;;;;;;;;;5054690;28;20698;-83
2022/03/02 13:47:25;;;;;;;2.50;2.30;;;;;;;;;;5050938;28;20231;-84
2022/03/02 13:50:07;;;;;;;2.78;2.58;;;;;;;;;;5058683;28;20222;-85
2022/03/02 13:53:02;;;;;;;2.08;1.98;;;;;;;;;;5058196;28;20272;-86
2022/03/02 13:55:37;;;;;;;3.05;2.75;;;;;;;;;;5059149;28;20202;-86
2022/03/02 13:58:25;;;;;;;2.65;2.45;;;;;;;;;;5058715;28;20205;-85
2022/03/02 14:00:54;;;;;;;4.70;4.00;;;;;;;;;;5059655;28;20224;-84
2022/03/02 14:03:31;;;;;;;3.33;3.03;;;;;;;;;;5053021;28;20236;-85
2022/03/02 14:06:02;;;;;;;3.15;2.95;;;;;;;;;;5054464;28;20229;-85
2022/03/02 14:08:30;;;;;;;3.63;3.13;;;;;;;;;;5060197;28;20857;-86
2022/03/02 14:10:57;;;;;;;2.63;2.42;;;;;;;;;;5059426;28;20587;-85
2022/03/02 14:13:34;;;;;;;2.55;2.10;;;;;;;;;;5058772;28;20418;-84
2022/03/02 14:16:06;;;;;;;2.58;2.38;;;;;;;;;;5060234;28;20212;-84
2022/03/02 14:18:34;;;;;;;2.83;1.73;;;;;;;;;;5067226;28;20544;-85
2022/03/02 14:21:11;;;;;;;2.60;2.22;;;;;;;;;;5067389;28;20216;-84
2022/03/02 14:23:49;;;;;;;4.72;3.70;;;;;;;;;;5066647;28;20229;-84
2022/03/02 14:26:17;;;;;;;3.95;3.65;;;;;;;;;;5061676;28;20297;-83
2022/03/02 14:28:45;;;;;;;2.55;2.35;;;;;;;;;;5060866;28;20209;-84
2022/03/02 14:31:12;;;;;;;2.40;2.20;;;;;;;;;;5060466;28;20205;-85
2022/03/02 14:33:39;;;;;;;2.10;2.00;;;;;;;;;;5060555;28;20233;-85
2022/03/02 14:36:17;;;;;;;2.97;2.42;;;;;;;;;;5059940;28;20198;-84
2022/03/02 14:38:44;;;;;;;2.47;2.28;;;;;;;;;;5060819;28;20210;-85
2022/03/02 14:41:12;;;;;;;1.95;1.65;;;;;;;;;;5060391;28;20259;-85
2022/03/02 14:43:39;;;;;;;2.50;2.30;;;;;;;;;;5060095;28;20252;-84
2022/03/02 14:46:07;;;;;;;2.60;2.40;;;;;;;;;;5060067;28;20232;-85
2022/03/02 14:48:35;;;;;;;3.38;2.50;;;;;;;;;;5060470;28;20263;-84
2022/03/02 14:51:03;;;;;;;2.15;2.05;;;;;;;;;;5059781;28;20212;-85
2022/03/02 14:53:35;;;;;;;2.78;2.58;;;;;;;;;;5060103;28;20270;-83
2022/03/02 14:56:04;;;;;;;2.85;2.65;;;;;;;;;;5060296;28;20210;-85
2022/03/02 14:58:36;;;;;;;2.65;2.45;;;;;;;;;;5059256;28;20206;-85
2022/03/02 15:01:11;;;;;;;2.88;2.58;;;;;;;;;;5059704;28;20214;-84